Time;durP1;ratioP1;P1;durP2;ratioP2;P2;SDS_P1;SDS_P2;PMS_P1;PMS_P2;Temp;Humidity;BMP_temperature;BMP_pressure;BME280_temperature;BME280_humidity;BME280_pressure;Samples;Min_cycle;Max_cycle;Signal;HPM_P1;HPM_P2
2023/01/27 00:02:18;;;;;;;7.77;5.03;;;;;;;;;;4990961;28;20210;-63
2023/01/27 00:04:47;;;;;;;7.10;4.47;;;;;;;;;;4992515;28;20236;-62
2023/01/27 00:07:14;;;;;;;9.00;4.43;;;;;;;;;;4993103;28;20692;-62
2023/01/27 00:09:41;;;;;;;9.53;5.10;;;;;;;;;;4984244;28;20518;-63
2023/01/27 00:14:57;;;;;;;11.67;4.53;;;;;;;;;;4987004;28;20220;-63
2023/01/27 00:17:24;;;;;;;8.33;3.73;;;;;;;;;;4989215;28;20220;-63
2023/01/27 00:19:52;;;;;;;6.43;4.17;;;;;;;;;;4986736;28;20237;-62
2023/01/27 00:25:04;;;;;;;9.97;4.17;;;;;;;;;;4983281;28;20252;-63
2023/01/27 00:27:31;;;;;;;5.90;4.17;;;;;;;;;;4990474;28;20344;-63
2023/01/27 00:29:58;;;;;;;5.53;3.70;;;;;;;;;;4989958;28;20217;-63
2023/01/27 00:35:11;;;;;;;7.93;4.30;;;;;;;;;;4972242;28;20290;-62
2023/01/27 00:37:38;;;;;;;8.80;5.27;;;;;;;;;;4980682;28;20211;-62
2023/01/27 00:40:06;;;;;;;11.27;5.17;;;;;;;;;;4980797;28;20602;-62
2023/01/27 00:42:33;;;;;;;10.83;5.63;;;;;;;;;;4982410;28;20633;-62
2023/01/27 00:47:44;;;;;;;9.03;4.03;;;;;;;;;;4989877;28;20296;-62
2023/01/27 00:50:13;;;;;;;9.50;4.43;;;;;;;;;;4985775;28;20232;-62
2023/01/27 00:52:40;;;;;;;11.67;4.73;;;;;;;;;;4970589;28;20740;-62
2023/01/27 00:55:09;;;;;;;12.23;5.13;;;;;;;;;;4975964;28;20211;-62
2023/01/27 00:57:36;;;;;;;11.10;5.70;;;;;;;;;;4985452;28;20245;-62
2023/01/27 01:00:03;;;;;;;7.30;5.20;;;;;;;;;;4988412;28;20221;-62
2023/01/27 01:02:30;;;;;;;10.47;5.93;;;;;;;;;;4987747;28;20210;-62
2023/01/27 01:04:57;;;;;;;13.23;4.93;;;;;;;;;;5007727;28;20233;-62
2023/01/27 01:07:26;;;;;;;16.83;5.03;;;;;;;;;;4983837;28;20242;-62
2023/01/27 01:09:53;;;;;;;15.00;4.60;;;;;;;;;;4989083;28;20218;-63
2023/01/27 01:12:20;;;;;;;10.30;4.80;;;;;;;;;;4981797;28;20316;-63
2023/01/27 01:14:47;;;;;;;8.50;4.00;;;;;;;;;;4985936;28;20208;-62
2023/01/27 01:17:14;;;;;;;4.40;3.93;;;;;;;;;;4975514;28;20274;-62
2023/01/27 01:19:41;;;;;;;6.90;4.80;;;;;;;;;;4988918;28;21353;-62
2023/01/27 01:22:08;;;;;;;9.80;5.27;;;;;;;;;;4991182;28;20272;-62
2023/01/27 01:24:36;;;;;;;9.80;5.63;;;;;;;;;;4970147;28;20225;-62
2023/01/27 01:27:03;;;;;;;8.13;5.13;;;;;;;;;;4979057;28;20711;-62
2023/01/27 01:29:30;;;;;;;9.53;4.17;;;;;;;;;;4984777;28;20270;-62
2023/01/27 01:31:58;;;;;;;5.07;3.93;;;;;;;;;;4971049;28;20217;-62
2023/01/27 01:34:25;;;;;;;8.63;4.47;;;;;;;;;;4997534;28;20216;-62
2023/01/27 01:36:52;;;;;;;5.03;3.93;;;;;;;;;;4988917;28;20223;-62
2023/01/27 01:39:19;;;;;;;5.37;3.87;;;;;;;;;;4979205;28;20229;-63
2023/01/27 01:41:48;;;;;;;8.17;5.07;;;;;;;;;;4978339;28;20210;-62
2023/01/27 01:44:19;;;;;;;10.53;3.93;;;;;;;;;;4986548;28;20222;-63
2023/01/27 01:46:46;;;;;;;14.47;5.87;;;;;;;;;;4977550;28;20215;-63
2023/01/27 01:49:13;;;;;;;4.17;3.77;;;;;;;;;;4986213;28;20208;-63
2023/01/27 01:51:42;;;;;;;7.37;3.83;;;;;;;;;;4976239;28;20684;-62
2023/01/27 01:54:10;;;;;;;6.10;4.23;;;;;;;;;;4987954;28;20818;-62
2023/01/27 01:56:39;;;;;;;8.10;4.50;;;;;;;;;;4983369;28;20228;-63
2023/01/27 01:59:12;;;;;;;7.57;4.33;;;;;;;;;;4973634;28;20250;-62
2023/01/27 02:01:39;;;;;;;7.80;4.57;;;;;;;;;;4985635;28;20199;-62
2023/01/27 02:04:09;;;;;;;5.77;3.73;;;;;;;;;;4981586;28;20214;-62
2023/01/27 02:06:41;;;;;;;9.13;3.53;;;;;;;;;;4991428;28;20224;-62
2023/01/27 02:09:08;;;;;;;6.43;4.17;;;;;;;;;;4980226;28;20671;-62
2023/01/27 02:11:35;;;;;;;5.83;3.57;;;;;;;;;;4983022;28;20212;-62
2023/01/27 02:14:02;;;;;;;13.17;4.47;;;;;;;;;;4992850;28;20629;-62
2023/01/27 02:16:32;;;;;;;11.43;4.97;;;;;;;;;;4986707;28;20218;-62
2023/01/27 02:18:59;;;;;;;5.93;4.20;;;;;;;;;;4982968;28;20248;-62
2023/01/27 02:21:26;;;;;;;7.20;4.13;;;;;;;;;;4990267;28;20704;-62
2023/01/27 02:23:56;;;;;;;8.43;4.43;;;;;;;;;;4973418;28;20738;-62
2023/01/27 02:26:26;;;;;;;10.87;4.23;;;;;;;;;;4979515;28;20236;-62
2023/01/27 02:28:55;;;;;;;12.90;5.10;;;;;;;;;;4994452;28;20219;-63
2023/01/27 02:31:22;;;;;;;8.17;5.00;;;;;;;;;;4994903;28;20315;-62
2023/01/27 02:33:49;;;;;;;7.70;3.93;;;;;;;;;;4991786;28;20209;-62
2023/01/27 02:36:18;;;;;;;10.53;3.50;;;;;;;;;;4990727;28;20256;-62
2023/01/27 02:38:47;;;;;;;9.13;3.77;;;;;;;;;;4990624;28;20212;-62
2023/01/27 02:41:16;;;;;;;6.33;4.13;;;;;;;;;;4991267;28;20732;-62
2023/01/27 02:43:45;;;;;;;6.73;3.80;;;;;;;;;;4992234;28;20216;-62
2023/01/27 02:46:12;;;;;;;7.77;4.17;;;;;;;;;;4982920;28;20236;-63
2023/01/27 02:48:39;;;;;;;8.87;4.80;;;;;;;;;;5008207;28;20257;-63
2023/01/27 02:51:06;;;;;;;8.27;3.90;;;;;;;;;;4991117;28;20216;-63
2023/01/27 02:53:33;;;;;;;7.77;4.10;;;;;;;;;;4991989;28;20304;-62
2023/01/27 02:56:00;;;;;;;7.97;3.37;;;;;;;;;;4986326;28;20234;-63
2023/01/27 02:58:27;;;;;;;7.23;3.83;;;;;;;;;;4983739;28;20270;-63
2023/01/27 03:00:55;;;;;;;9.47;4.27;;;;;;;;;;4991622;28;20302;-62
2023/01/27 03:03:22;;;;;;;8.00;3.43;;;;;;;;;;4980750;28;20213;-63
2023/01/27 03:05:50;;;;;;;6.80;3.93;;;;;;;;;;4987822;28;20284;-62
2023/01/27 03:08:17;;;;;;;9.67;4.83;;;;;;;;;;4991177;28;20726;-62
2023/01/27 03:10:45;;;;;;;9.10;4.20;;;;;;;;;;4989785;28;20669;-63
2023/01/27 03:13:12;;;;;;;9.57;4.07;;;;;;;;;;4989785;28;20221;-63
2023/01/27 03:18:25;;;;;;;4.93;3.13;;;;;;;;;;4982854;28;20208;-63
2023/01/27 03:20:52;;;;;;;9.57;4.43;;;;;;;;;;4999648;28;20217;-62
2023/01/27 03:23:19;;;;;;;14.90;3.73;;;;;;;;;;4991668;28;20217;-62
2023/01/27 03:25:47;;;;;;;6.67;3.87;;;;;;;;;;4991482;28;21211;-62
2023/01/27 03:28:15;;;;;;;10.20;4.20;;;;;;;;;;5011043;28;20215;-62
2023/01/27 03:30:42;;;;;;;7.13;3.30;;;;;;;;;;4990102;28;20212;-63
2023/01/27 03:33:09;;;;;;;7.73;3.93;;;;;;;;;;4991479;28;20269;-62
2023/01/27 03:35:47;;;;;;;6.03;4.23;;;;;;;;;;4984315;28;20204;-62
2023/01/27 03:46:28;;;;;;;7.77;4.23;;;;;;;;;;4982084;28;20268;-63
2023/01/27 03:48:56;;;;;;;7.07;3.50;;;;;;;;;;4971763;28;20221;-62
2023/01/27 03:51:25;;;;;;;7.90;4.20;;;;;;;;;;4972059;28;20208;-62
2023/01/27 03:53:52;;;;;;;8.30;4.47;;;;;;;;;;4989412;28;20583;-62
2023/01/27 03:56:20;;;;;;;9.50;4.53;;;;;;;;;;4977083;28;20347;-62
2023/01/27 03:58:48;;;;;;;9.03;3.70;;;;;;;;;;4974877;28;20203;-62
2023/01/27 04:01:16;;;;;;;9.53;4.20;;;;;;;;;;4985682;28;20328;-62
2023/01/27 04:09:19;;;;;;;2.10;1.97;;;;;;;;;;4980665;28;20213;-63
2023/01/27 04:11:54;;;;;;;2.93;2.50;;;;;;;;;;4978313;28;20294;-62
2023/01/27 04:14:21;;;;;;;6.57;2.87;;;;;;;;;;4982495;28;20209;-63
2023/01/27 04:16:49;;;;;;;3.13;2.83;;;;;;;;;;4975722;28;20265;-63
2023/01/27 04:19:16;;;;;;;2.47;2.20;;;;;;;;;;4974968;28;20234;-62
2023/01/27 04:21:44;;;;;;;4.80;3.20;;;;;;;;;;4977018;28;20208;-62
2023/01/27 04:24:22;;;;;;;3.07;2.43;;;;;;;;;;4985985;28;20554;-62
2023/01/27 04:26:49;;;;;;;2.33;1.90;;;;;;;;;;4995801;28;20313;-62
2023/01/27 04:29:17;;;;;;;2.93;2.47;;;;;;;;;;4986946;28;20210;-62
2023/01/27 04:31:44;;;;;;;2.40;1.50;;;;;;;;;;4987378;28;20215;-63
2023/01/27 04:34:11;;;;;;;4.57;2.23;;;;;;;;;;4972440;28;20308;-62
2023/01/27 04:36:39;;;;;;;2.27;1.93;;;;;;;;;;4979863;28;20291;-62
2023/01/27 04:39:07;;;;;;;3.87;2.47;;;;;;;;;;4989126;28;20215;-62
2023/01/27 04:41:34;;;;;;;2.67;2.47;;;;;;;;;;4982971;28;20210;-63
2023/01/27 04:44:03;;;;;;;2.77;2.07;;;;;;;;;;4975783;28;20494;-62
2023/01/27 04:46:30;;;;;;;4.07;2.53;;;;;;;;;;4988070;28;20248;-62
2023/01/27 04:48:57;;;;;;;1.77;1.23;;;;;;;;;;4989584;28;20216;-62
2023/01/27 04:51:25;;;;;;;2.03;1.93;;;;;;;;;;4976010;28;20220;-62
2023/01/27 04:53:52;;;;;;;3.90;2.60;;;;;;;;;;4988536;28;20208;-62
2023/01/27 04:56:23;;;;;;;4.53;2.23;;;;;;;;;;4976995;28;20231;-62
2023/01/27 04:58:51;;;;;;;3.77;2.80;;;;;;;;;;4989635;28;20216;-62
2023/01/27 05:01:18;;;;;;;2.33;2.07;;;;;;;;;;4987413;28;20257;-62
2023/01/27 05:03:45;;;;;;;1.67;1.50;;;;;;;;;;4978472;28;20211;-61
2023/01/27 05:06:12;;;;;;;3.23;2.50;;;;;;;;;;4987858;28;20236;-62
2023/01/27 05:08:39;;;;;;;1.97;1.83;;;;;;;;;;4988648;28;20754;-62
2023/01/27 05:11:07;;;;;;;4.80;2.67;;;;;;;;;;4996701;28;20274;-62
2023/01/27 05:13:35;;;;;;;7.07;2.50;;;;;;;;;;4970921;28;20696;-63
2023/01/27 05:16:07;;;;;;;4.00;2.07;;;;;;;;;;4970592;28;20674;-62
2023/01/27 05:18:34;;;;;;;4.80;2.20;;;;;;;;;;4981206;28;20362;-62
2023/01/27 05:21:01;;;;;;;3.43;2.93;;;;;;;;;;4986946;28;20275;-62
2023/01/27 05:23:37;;;;;;;5.50;2.83;;;;;;;;;;4977270;28;20218;-63
2023/01/27 05:26:09;;;;;;;3.63;1.93;;;;;;;;;;4997189;28;20617;-62
2023/01/27 05:28:38;;;;;;;4.23;3.07;;;;;;;;;;4985271;28;20698;-63
2023/01/27 05:31:06;;;;;;;2.43;2.13;;;;;;;;;;4989428;28;20210;-62
2023/01/27 05:33:33;;;;;;;2.93;2.63;;;;;;;;;;4979562;28;20212;-62
2023/01/27 05:36:01;;;;;;;1.80;1.70;;;;;;;;;;4969255;28;20627;-62
2023/01/27 05:38:28;;;;;;;1.87;1.70;;;;;;;;;;4972103;28;20214;-62
2023/01/27 05:40:56;;;;;;;3.70;2.07;;;;;;;;;;4970209;28;20688;-62
2023/01/27 05:43:24;;;;;;;3.20;2.10;;;;;;;;;;4977382;28;20230;-62
2023/01/27 05:45:52;;;;;;;2.77;1.77;;;;;;;;;;4989303;28;20238;-62
2023/01/27 05:48:19;;;;;;;4.73;1.77;;;;;;;;;;4988150;28;20223;-62
2023/01/27 05:50:54;;;;;;;2.57;2.13;;;;;;;;;;4989509;28;20216;-62
2023/01/27 05:53:22;;;;;;;3.87;2.23;;;;;;;;;;4980376;28;20203;-62
2023/01/27 05:55:49;;;;;;;1.77;1.67;;;;;;;;;;5007133;28;20306;-63
2023/01/27 05:58:16;;;;;;;3.13;2.63;;;;;;;;;;4994593;28;20262;-62
2023/01/27 06:00:43;;;;;;;2.43;2.23;;;;;;;;;;4988600;28;20297;-62
2023/01/27 06:03:12;;;;;;;3.03;2.60;;;;;;;;;;4985631;28;20221;-63
2023/01/27 06:05:39;;;;;;;2.97;2.37;;;;;;;;;;4977940;28;20208;-62
2023/01/27 06:08:06;;;;;;;2.37;2.13;;;;;;;;;;4972495;28;20223;-62
2023/01/27 06:10:36;;;;;;;2.13;1.97;;;;;;;;;;4984786;28;20222;-63
2023/01/27 06:13:03;;;;;;;4.83;2.97;;;;;;;;;;5004195;28;20338;-62
2023/01/27 06:15:30;;;;;;;2.33;2.13;;;;;;;;;;4992044;28;20207;-62
2023/01/27 06:17:57;;;;;;;2.67;2.47;;;;;;;;;;4986673;28;20508;-62
2023/01/27 06:20:26;;;;;;;4.53;2.27;;;;;;;;;;4993041;28;20263;-63
2023/01/27 06:22:53;;;;;;;4.73;2.43;;;;;;;;;;4972222;28;20673;-62
2023/01/27 06:25:20;;;;;;;4.93;3.07;;;;;;;;;;4979748;28;20566;-62
2023/01/27 06:27:47;;;;;;;3.67;2.30;;;;;;;;;;4972028;28;20229;-62
2023/01/27 06:30:14;;;;;;;1.93;1.57;;;;;;;;;;4969790;28;20215;-62
2023/01/27 06:32:41;;;;;;;3.33;2.57;;;;;;;;;;4985437;28;20205;-63
2023/01/27 06:35:09;;;;;;;3.57;2.77;;;;;;;;;;4972858;28;20296;-62
2023/01/27 06:37:37;;;;;;;4.50;3.13;;;;;;;;;;4997276;28;20261;-63
2023/01/27 06:40:04;;;;;;;3.70;2.50;;;;;;;;;;4978629;28;20218;-63
2023/01/27 06:42:31;;;;;;;2.40;1.90;;;;;;;;;;4987840;28;20209;-63
2023/01/27 06:44:58;;;;;;;5.03;2.60;;;;;;;;;;4984808;28;20287;-64
2023/01/27 06:47:25;;;;;;;4.90;2.70;;;;;;;;;;4982681;28;20233;-63
2023/01/27 06:49:52;;;;;;;4.13;2.60;;;;;;;;;;4978786;28;20212;-62
2023/01/27 06:52:19;;;;;;;2.53;2.33;;;;;;;;;;4991330;28;20684;-62
2023/01/27 06:54:48;;;;;;;2.53;2.33;;;;;;;;;;4988386;28;20209;-62
2023/01/27 06:57:15;;;;;;;5.20;2.30;;;;;;;;;;4985728;28;20229;-62
2023/01/27 06:59:42;;;;;;;3.47;3.13;;;;;;;;;;4991688;28;20292;-62
2023/01/27 07:02:09;;;;;;;6.53;4.13;;;;;;;;;;4984231;28;20205;-62
2023/01/27 07:04:36;;;;;;;5.70;3.47;;;;;;;;;;4991578;28;20213;-62
2023/01/27 07:07:04;;;;;;;5.23;3.70;;;;;;;;;;4990365;28;20237;-62
2023/01/27 07:09:31;;;;;;;2.80;2.60;;;;;;;;;;4992381;28;20224;-62
2023/01/27 07:11:59;;;;;;;2.60;2.23;;;;;;;;;;4992132;28;20212;-63
2023/01/27 07:14:26;;;;;;;6.77;2.97;;;;;;;;;;4992105;28;20679;-63
2023/01/27 07:16:53;;;;;;;5.13;2.93;;;;;;;;;;4992264;28;20212;-63
2023/01/27 07:19:20;;;;;;;3.00;2.70;;;;;;;;;;4991721;28;20252;-63
2023/01/27 07:21:47;;;;;;;4.27;2.80;;;;;;;;;;4992056;28;20571;-63
2023/01/27 07:24:14;;;;;;;4.30;3.03;;;;;;;;;;4991879;28;20423;-62
2023/01/27 07:26:43;;;;;;;4.70;2.83;;;;;;;;;;4994481;28;20254;-63
2023/01/27 07:29:11;;;;;;;2.67;2.07;;;;;;;;;;5011573;28;20217;-62
2023/01/27 07:31:38;;;;;;;4.47;2.80;;;;;;;;;;4995235;28;20216;-62
2023/01/27 07:34:05;;;;;;;2.73;2.47;;;;;;;;;;4977882;28;20595;-62
2023/01/27 07:36:32;;;;;;;2.63;2.37;;;;;;;;;;4972439;28;20206;-62
2023/01/27 07:39:00;;;;;;;2.40;2.23;;;;;;;;;;4976002;28;20214;-62
2023/01/27 07:41:27;;;;;;;3.60;2.30;;;;;;;;;;4972403;28;20271;-62
2023/01/27 07:43:54;;;;;;;5.40;3.00;;;;;;;;;;4989037;28;20280;-63
2023/01/27 07:46:22;;;;;;;2.20;2.00;;;;;;;;;;4990008;28;20240;-71
2023/01/27 07:48:49;;;;;;;3.53;1.97;;;;;;;;;;4976778;28;20264;-62
2023/01/27 07:51:16;;;;;;;4.63;2.30;;;;;;;;;;4987833;28;20621;-63
2023/01/27 07:53:43;;;;;;;6.60;3.90;;;;;;;;;;4990798;28;20217;-70
2023/01/27 07:56:11;;;;;;;2.97;2.43;;;;;;;;;;4976491;28;20240;-62
2023/01/27 07:58:38;;;;;;;4.00;2.70;;;;;;;;;;4970932;28;20213;-67
2023/01/27 08:01:06;;;;;;;6.30;2.97;;;;;;;;;;4984817;28;20243;-63
2023/01/27 08:03:35;;;;;;;4.97;2.87;;;;;;;;;;4991193;28;20316;-62
2023/01/27 08:06:05;;;;;;;9.50;4.20;;;;;;;;;;4990466;28;20213;-63
2023/01/27 08:08:32;;;;;;;5.00;4.23;;;;;;;;;;4988772;28;20769;-63
2023/01/27 08:10:59;;;;;;;6.60;3.67;;;;;;;;;;4990964;28;20641;-63
2023/01/27 08:13:26;;;;;;;6.40;3.80;;;;;;;;;;5007526;28;20594;-62
2023/01/27 08:15:56;;;;;;;6.67;4.17;;;;;;;;;;5010111;28;20213;-63
2023/01/27 08:18:24;;;;;;;6.07;3.33;;;;;;;;;;4998867;28;20209;-64
2023/01/27 08:20:53;;;;;;;3.90;2.47;;;;;;;;;;4990569;28;20224;-63
2023/01/27 08:23:20;;;;;;;2.93;2.77;;;;;;;;;;4990190;28;20220;-64
2023/01/27 08:25:49;;;;;;;5.97;3.33;;;;;;;;;;4990435;28;20209;-63
2023/01/27 08:28:16;;;;;;;4.63;3.03;;;;;;;;;;4990087;28;20234;-63
2023/01/27 08:30:43;;;;;;;3.67;3.03;;;;;;;;;;4990233;28;20220;-63
2023/01/27 08:33:10;;;;;;;3.50;3.07;;;;;;;;;;5002714;28;20535;-64
2023/01/27 08:35:41;;;;;;;4.23;2.97;;;;;;;;;;5009884;28;20221;-64
2023/01/27 08:38:09;;;;;;;5.70;3.13;;;;;;;;;;5009692;28;20218;-64
2023/01/27 08:40:37;;;;;;;4.60;2.60;;;;;;;;;;5009416;28;20223;-64
2023/01/27 08:43:04;;;;;;;2.27;2.17;;;;;;;;;;5009561;28;20710;-64
2023/01/27 08:45:31;;;;;;;3.23;2.67;;;;;;;;;;5008379;28;20220;-64
2023/01/27 08:47:58;;;;;;;5.47;3.20;;;;;;;;;;5009296;28;20607;-64
2023/01/27 08:50:25;;;;;;;4.40;2.73;;;;;;;;;;5009403;28;20219;-64
2023/01/27 08:52:52;;;;;;;3.33;2.60;;;;;;;;;;5009330;28;20696;-64
2023/01/27 08:55:20;;;;;;;4.50;2.90;;;;;;;;;;5009332;28;20212;-64
2023/01/27 08:57:47;;;;;;;4.20;2.63;;;;;;;;;;5007969;28;20221;-64
2023/01/27 09:00:15;;;;;;;4.03;2.97;;;;;;;;;;5008934;28;20746;-64
2023/01/27 09:02:42;;;;;;;2.47;2.27;;;;;;;;;;5009342;28;20564;-63
2023/01/27 09:05:09;;;;;;;1.47;1.43;;;;;;;;;;5009342;28;20705;-63
2023/01/27 09:07:37;;;;;;;2.20;1.53;;;;;;;;;;5009004;28;20236;-63
2023/01/27 09:10:04;;;;;;;1.77;1.67;;;;;;;;;;5009185;28;20208;-62
2023/01/27 09:12:32;;;;;;;5.07;2.63;;;;;;;;;;5009173;28;20577;-62
2023/01/27 09:14:59;;;;;;;1.53;1.47;;;;;;;;;;5008708;28;20595;-62
2023/01/27 09:17:26;;;;;;;3.50;2.30;;;;;;;;;;5009053;28;20216;-62
2023/01/27 09:19:53;;;;;;;5.87;2.57;;;;;;;;;;5008612;28;20255;-62
2023/01/27 09:22:20;;;;;;;1.43;1.33;;;;;;;;;;5008816;28;20219;-62
2023/01/27 09:24:47;;;;;;;1.77;1.47;;;;;;;;;;5008946;28;20208;-62
2023/01/27 09:27:14;;;;;;;1.97;1.87;;;;;;;;;;5008513;28;20235;-62
2023/01/27 09:29:43;;;;;;;2.83;2.07;;;;;;;;;;5008498;28;20634;-62
2023/01/27 09:32:11;;;;;;;0.50;0.50;;;;;;;;;;5008772;28;20259;-63
2023/01/27 09:34:38;;;;;;;2.07;1.90;;;;;;;;;;5007395;28;20671;-63
2023/01/27 09:37:07;;;;;;;1.00;1.00;;;;;;;;;;5008727;28;20760;-62
2023/01/27 09:39:36;;;;;;;2.87;2.40;;;;;;;;;;5008498;28;20287;-63
2023/01/27 09:42:16;;;;;;;2.63;2.03;;;;;;;;;;5008721;28;20205;-63
2023/01/27 09:44:50;;;;;;;2.90;2.13;;;;;;;;;;5007749;28;20263;-63
2023/01/27 09:47:27;;;;;;;2.87;2.17;;;;;;;;;;5008285;28;20572;-63
2023/01/27 09:50:03;;;;;;;2.30;1.80;;;;;;;;;;5007297;28;20275;-63
2023/01/27 09:52:37;;;;;;;2.20;2.10;;;;;;;;;;5008513;28;20220;-63
2023/01/27 09:55:06;;;;;;;1.73;1.50;;;;;;;;;;5008429;28;20274;-63
2023/01/27 09:57:39;;;;;;;2.00;1.80;;;;;;;;;;5008274;28;20229;-62
2023/01/27 10:00:13;;;;;;;1.33;1.23;;;;;;;;;;5008332;28;20217;-63
2023/01/27 10:02:50;;;;;;;2.77;1.80;;;;;;;;;;5008464;28;20266;-63
2023/01/27 10:05:31;;;;;;;2.17;2.03;;;;;;;;;;5008086;28;20217;-63
2023/01/27 10:08:09;;;;;;;2.10;2.00;;;;;;;;;;5008141;28;20232;-63
2023/01/27 10:10:46;;;;;;;10.17;1.80;;;;;;;;;;5008063;28;20703;-63
2023/01/27 10:13:17;;;;;;;1.87;1.77;;;;;;;;;;5008264;28;20213;-62
2023/01/27 10:15:50;;;;;;;3.13;2.37;;;;;;;;;;5008516;28;20279;-63
2023/01/27 10:18:24;;;;;;;2.33;1.93;;;;;;;;;;5007958;28;20213;-63
2023/01/27 10:20:59;;;;;;;2.03;1.77;;;;;;;;;;5008073;28;20737;-63
2023/01/27 10:23:32;;;;;;;2.13;1.97;;;;;;;;;;4972120;28;20217;-63
2023/01/27 10:26:03;;;;;;;2.77;2.17;;;;;;;;;;4973119;28;20268;-65
2023/01/27 10:28:32;;;;;;;2.77;2.43;;;;;;;;;;4998513;28;20296;-65
2023/01/27 10:31:01;;;;;;;3.30;2.17;;;;;;;;;;5012278;28;20601;-65
2023/01/27 10:33:37;;;;;;;3.57;2.90;;;;;;;;;;5012128;28;20711;-63
2023/01/27 10:36:08;;;;;;;2.43;1.77;;;;;;;;;;5012034;28;20258;-63
2023/01/27 10:38:38;;;;;;;2.67;2.13;;;;;;;;;;5010843;28;20219;-63
2023/01/27 10:41:10;;;;;;;1.73;1.63;;;;;;;;;;5011791;28;20279;-63
2023/01/27 10:43:41;;;;;;;2.03;1.60;;;;;;;;;;5011694;28;20212;-63
2023/01/27 10:46:15;;;;;;;1.80;1.30;;;;;;;;;;5011905;28;20231;-62
2023/01/27 10:48:46;;;;;;;2.77;2.33;;;;;;;;;;5011671;28;20306;-63
2023/01/27 10:51:15;;;;;;;1.17;1.17;;;;;;;;;;5011639;28;20209;-63
2023/01/27 10:53:48;;;;;;;1.87;1.63;;;;;;;;;;5011795;28;20218;-63
2023/01/27 10:56:17;;;;;;;2.30;2.10;;;;;;;;;;4972284;28;20273;-62
2023/01/27 10:58:48;;;;;;;1.87;1.77;;;;;;;;;;4972494;28;20218;-63
2023/01/27 11:01:18;;;;;;;2.20;2.10;;;;;;;;;;5009711;28;20220;-62
2023/01/27 11:03:48;;;;;;;1.37;1.27;;;;;;;;;;5011781;28;20216;-64
2023/01/27 11:06:16;;;;;;;1.33;1.13;;;;;;;;;;5011456;28;20217;-65
2023/01/27 11:08:45;;;;;;;3.43;3.20;;;;;;;;;;5010398;28;20228;-64
2023/01/27 11:14:01;;;;;;;0.60;0.47;;;;;;;;;;5011133;28;20216;-63
2023/01/27 11:16:32;;;;;;;0.80;0.80;;;;;;;;;;5011362;28;20217;-63
2023/01/27 11:19:01;;;;;;;1.87;0.63;;;;;;;;;;5010026;28;20237;-63
2023/01/27 11:21:31;;;;;;;1.83;1.43;;;;;;;;;;5011178;28;20209;-63
2023/01/27 11:24:00;;;;;;;7.67;2.00;;;;;;;;;;5003587;28;20584;-63
2023/01/27 11:26:30;;;;;;;0.30;0.30;;;;;;;;;;4979738;28;20220;-63
2023/01/27 11:29:06;;;;;;;1.00;1.00;;;;;;;;;;4971546;28;20226;-63
2023/01/27 11:31:38;;;;;;;0.30;0.30;;;;;;;;;;4985946;28;20213;-64
2023/01/27 11:34:07;;;;;;;0.07;0.07;;;;;;;;;;4990345;28;20213;-64
2023/01/27 11:36:35;;;;;;;0.90;0.90;;;;;;;;;;4991422;28;20214;-63
2023/01/27 11:39:05;;;;;;;0.10;0.10;;;;;;;;;;4991641;28;20224;-64
2023/01/27 11:41:32;;;;;;;0.40;0.40;;;;;;;;;;5011148;28;20205;-65
2023/01/27 11:44:00;;;;;;;1.30;1.20;;;;;;;;;;5011059;28;20263;-64
2023/01/27 11:46:30;;;;;;;0.77;0.77;;;;;;;;;;5009996;28;20630;-64
2023/01/27 11:48:59;;;;;;;1.00;1.00;;;;;;;;;;5002510;28;20611;-63
2023/01/27 11:51:27;;;;;;;1.33;1.23;;;;;;;;;;4989411;28;20238;-64
2023/01/27 11:54:00;;;;;;;1.13;1.13;;;;;;;;;;4990606;28;20210;-64
2023/01/27 11:56:28;;;;;;;1.33;1.23;;;;;;;;;;4998047;28;20283;-64
2023/01/27 11:58:58;;;;;;;1.30;1.30;;;;;;;;;;5010253;28;20209;-64
2023/01/27 12:01:34;;;;;;;1.20;1.20;;;;;;;;;;5010423;28;20266;-64
2023/01/27 12:04:05;;;;;;;1.60;1.40;;;;;;;;;;5010533;28;20212;-64
2023/01/27 12:06:34;;;;;;;1.93;1.00;;;;;;;;;;4993002;28;20765;-65
2023/01/27 12:09:01;;;;;;;0.83;0.83;;;;;;;;;;4990435;28;20225;-64
2023/01/27 12:11:29;;;;;;;0.90;0.90;;;;;;;;;;4990510;28;20208;-64
2023/01/27 12:13:57;;;;;;;0.77;0.77;;;;;;;;;;4990469;28;20214;-65
2023/01/27 12:16:26;;;;;;;1.10;0.90;;;;;;;;;;4990080;28;20245;-63
2023/01/27 12:18:55;;;;;;;0.23;0.23;;;;;;;;;;4990564;28;20234;-60
2023/01/27 12:21:34;;;;;;;1.13;1.13;;;;;;;;;;4988752;28;20202;-67
2023/01/27 12:24:01;;;;;;;1.10;0.90;;;;;;;;;;4977113;28;20305;-66
2023/01/27 12:26:37;;;;;;;0.37;0.37;;;;;;;;;;5002014;28;20239;-62
2023/01/27 12:29:06;;;;;;;1.10;0.57;;;;;;;;;;4990339;28;20229;-64
2023/01/27 12:31:43;;;;;;;1.33;1.07;;;;;;;;;;4990197;28;20220;-65
2023/01/27 12:34:15;;;;;;;0.73;0.73;;;;;;;;;;4971729;28;20301;-63
2023/01/27 12:36:44;;;;;;;0.40;0.40;;;;;;;;;;4982296;28;20217;-65
2023/01/27 12:39:25;;;;;;;0.60;0.30;;;;;;;;;;4974822;28;20202;-65
2023/01/27 12:41:52;;;;;;;0.87;0.87;;;;;;;;;;4972066;28;20218;-64
2023/01/27 12:44:21;;;;;;;0.20;0.20;;;;;;;;;;4986230;28;20244;-65
2023/01/27 12:46:57;;;;;;;0.20;0.20;;;;;;;;;;4998539;28;20205;-63
2023/01/27 12:49:25;;;;;;;0.33;0.33;;;;;;;;;;4988655;28;20237;-63
2023/01/27 12:51:55;;;;;;;1.27;0.40;;;;;;;;;;4984759;28;20544;-64
2023/01/27 12:54:23;;;;;;;0.20;0.20;;;;;;;;;;4985854;28;20301;-64
2023/01/27 12:56:51;;;;;;;0.70;0.70;;;;;;;;;;4989361;28;20233;-65
2023/01/27 12:59:20;;;;;;;0.73;0.73;;;;;;;;;;4987665;28;20616;-63
2023/01/27 13:01:58;;;;;;;0.10;0.10;;;;;;;;;;4988326;28;20294;-65
2023/01/27 13:04:26;;;;;;;0.50;0.50;;;;;;;;;;4995685;28;20208;-64
2023/01/27 13:06:57;;;;;;;0.53;0.53;;;;;;;;;;5009327;28;20304;-65
2023/01/27 13:09:26;;;;;;;0.30;0.30;;;;;;;;;;4997292;28;20724;-65
2023/01/27 13:11:54;;;;;;;1.00;0.73;;;;;;;;;;4983506;28;20233;-64
2023/01/27 13:14:21;;;;;;;0.47;0.47;;;;;;;;;;4983482;28;20673;-65
2023/01/27 13:16:52;;;;;;;0.67;0.67;;;;;;;;;;4989460;28;20201;-65
2023/01/27 13:19:19;;;;;;;1.80;0.60;;;;;;;;;;4988953;28;20772;-65
2023/01/27 13:21:48;;;;;;;0.90;0.90;;;;;;;;;;4989016;28;20636;-64
2023/01/27 13:24:20;;;;;;;0.40;0.40;;;;;;;;;;4989446;28;20222;-64
2023/01/27 13:26:50;;;;;;;0.60;0.33;;;;;;;;;;5004789;28;20213;-64
2023/01/27 13:29:19;;;;;;;0.50;0.50;;;;;;;;;;5008661;28;20234;-65
2023/01/27 13:31:50;;;;;;;0.77;0.50;;;;;;;;;;5008906;28;20630;-64
2023/01/27 13:34:23;;;;;;;0.30;0.30;;;;;;;;;;5008921;28;20213;-66
2023/01/27 13:36:53;;;;;;;0.73;0.73;;;;;;;;;;5007861;28;20698;-65
2023/01/27 13:39:25;;;;;;;0.10;0.10;;;;;;;;;;5008946;28;20208;-66
2023/01/27 13:41:56;;;;;;;0.40;0.40;;;;;;;;;;5008869;28;20711;-67
2023/01/27 13:44:26;;;;;;;0.33;0.33;;;;;;;;;;5009141;28;20209;-65
2023/01/27 13:46:55;;;;;;;4.90;0.57;;;;;;;;;;5008669;28;20216;-66
2023/01/27 13:49:29;;;;;;;0.40;0.40;;;;;;;;;;4995174;28;20304;-66
2023/01/27 13:51:56;;;;;;;0.60;0.60;;;;;;;;;;5001363;28;20298;-65
2023/01/27 13:54:24;;;;;;;1.13;0.73;;;;;;;;;;5008852;28;20218;-65
2023/01/27 13:56:59;;;;;;;0.10;0.10;;;;;;;;;;4988049;28;20248;-64
2023/01/27 13:59:36;;;;;;;1.60;1.50;;;;;;;;;;4988742;28;20203;-64
2023/01/27 14:02:12;;;;;;;0.13;0.13;;;;;;;;;;4985121;28;20205;-64
2023/01/27 14:04:48;;;;;;;0.30;0.30;;;;;;;;;;4985129;28;20215;-64
2023/01/27 14:07:21;;;;;;;0.30;0.30;;;;;;;;;;4985330;28;20215;-64
2023/01/27 14:09:58;;;;;;;0.40;0.40;;;;;;;;;;4990551;28;20299;-64
2023/01/27 14:12:32;;;;;;;1.70;0.60;;;;;;;;;;4993288;28;20211;-63
2023/01/27 14:15:03;;;;;;;0.30;0.30;;;;;;;;;;4984967;28;20218;-64
2023/01/27 14:23:16;;;;;;;0.23;0.23;;;;;;;;;;5133520;23;20914;-61
2023/01/27 14:25:50;;;;;;;0.00;0.00;;;;;;;;;;4865463;29;20206;-61
2023/01/27 14:28:22;;;;;;;0.13;0.13;;;;;;;;;;4872305;29;20262;-62
2023/01/27 14:30:53;;;;;;;0.23;0.23;;;;;;;;;;4868293;29;20217;-59
2023/01/27 14:33:24;;;;;;;0.10;0.10;;;;;;;;;;4874247;29;20594;-60
2023/01/27 14:35:55;;;;;;;0.10;0.10;;;;;;;;;;4871648;29;20576;-60
2023/01/27 14:38:24;;;;;;;0.30;0.30;;;;;;;;;;4872188;29;20286;-60
2023/01/27 14:40:58;;;;;;;0.20;0.20;;;;;;;;;;4871575;29;20319;-61
2023/01/27 14:43:29;;;;;;;0.63;0.20;;;;;;;;;;4871317;29;20221;-61
2023/01/27 14:46:00;;;;;;;0.30;0.30;;;;;;;;;;4873283;29;20310;-61
2023/01/27 14:48:39;;;;;;;0.00;0.00;;;;;;;;;;4872418;29;20670;-62
2023/01/27 14:51:08;;;;;;;0.10;0.10;;;;;;;;;;4872705;29;20222;-61
2023/01/27 14:53:41;;;;;;;0.20;0.20;;;;;;;;;;4865426;29;20214;-62
2023/01/27 14:56:12;;;;;;;0.00;0.00;;;;;;;;;;4870084;29;20210;-62
2023/01/27 14:58:46;;;;;;;0.10;0.10;;;;;;;;;;4871292;29;20210;-62
2023/01/27 15:01:17;;;;;;;0.27;0.27;;;;;;;;;;4870575;29;20238;-61
2023/01/27 15:04:08;;;;;;;0.10;0.10;;;;;;;;;;4868847;29;20229;-62
2023/01/27 15:06:41;;;;;;;0.30;0.30;;;;;;;;;;4868474;29;20228;-63
2023/01/27 15:09:12;;;;;;;1.07;0.20;;;;;;;;;;4873545;29;20237;-62
2023/01/27 15:11:53;;;;;;;0.30;0.30;;;;;;;;;;4874917;29;20216;-60
2023/01/27 15:14:31;;;;;;;0.37;0.37;;;;;;;;;;4875631;29;20218;-64
2023/01/27 15:17:06;;;;;;;0.40;0.40;;;;;;;;;;4875480;29;20210;-62
2023/01/27 15:19:51;;;;;;;0.20;0.20;;;;;;;;;;4862851;29;20288;-63
2023/01/27 15:22:29;;;;;;;0.00;0.00;;;;;;;;;;4856218;29;20733;-62
2023/01/27 15:24:59;;;;;;;0.20;0.20;;;;;;;;;;4856802;29;20656;-62
2023/01/27 15:27:28;;;;;;;1.30;0.20;;;;;;;;;;4855929;29;20214;-63
2023/01/27 15:29:55;;;;;;;0.70;0.70;;;;;;;;;;4856548;29;20597;-63
2023/01/27 15:32:26;;;;;;;0.10;0.10;;;;;;;;;;4856180;29;20287;-62